createdAt,value
2023-08-30T00:04:15.800Z,2.10
2023-08-30T00:09:18.542Z,1.70
2023-08-30T00:14:21.276Z,1.90
2023-08-30T00:19:25.394Z,1.93
2023-08-30T00:24:29.448Z,2.17
2023-08-30T00:29:32.161Z,2.10
2023-08-30T00:34:36.246Z,1.97
2023-08-30T00:39:39.656Z,2.43
2023-08-30T00:44:43.298Z,2.07
2023-08-30T00:49:47.368Z,2.63
2023-08-30T00:54:50.256Z,2.70
2023-08-30T00:59:53.577Z,2.73
2023-08-30T01:04:59.103Z,3.03
2023-08-30T01:10:01.802Z,3.47
2023-08-30T01:15:06.592Z,3.10
2023-08-30T01:20:15.291Z,3.10
2023-08-30T01:25:27.456Z,3.30
2023-08-30T01:30:33.137Z,2.80
2023-08-30T01:35:38.331Z,3.80
2023-08-30T01:40:45.810Z,3.80
2023-08-30T01:45:49.891Z,3.53
2023-08-30T01:50:52.777Z,3.60
2023-08-30T01:55:55.554Z,4.40
2023-08-30T02:00:59.880Z,4.50
2023-08-30T02:06:10.008Z,4.57
2023-08-30T02:11:21.731Z,4.17
2023-08-30T02:16:27.547Z,4.07
2023-08-30T02:21:30.416Z,4.00
2023-08-30T02:26:33.137Z,3.70
2023-08-30T02:31:37.266Z,3.50
2023-08-30T02:36:39.985Z,3.60
2023-08-30T02:41:42.681Z,3.83
2023-08-30T02:46:46.714Z,3.63
2023-08-30T02:51:49.436Z,3.70
2023-08-30T02:56:52.131Z,3.63
2023-08-30T03:01:56.385Z,3.87
2023-08-30T03:06:59.557Z,3.93
2023-08-30T03:12:04.765Z,3.57
2023-08-30T03:17:10.217Z,4.27
2023-08-30T03:22:14.447Z,4.57
2023-08-30T03:27:17.200Z,4.70
2023-08-30T03:32:22.194Z,4.30
2023-08-30T03:37:25.517Z,4.50
2023-08-30T03:42:28.228Z,4.03
2023-08-30T03:47:32.343Z,4.30
2023-08-30T03:52:35.995Z,4.20
2023-08-30T03:57:38.762Z,4.80
2023-08-30T04:02:42.901Z,4.50
2023-08-30T04:07:45.702Z,4.60
2023-08-30T04:12:48.371Z,4.63
2023-08-30T04:17:52.505Z,4.50
2023-08-30T04:22:56.230Z,4.87
2023-08-30T04:27:58.958Z,3.87
2023-08-30T04:33:04.404Z,4.80
2023-08-30T04:38:07.750Z,6.93
2023-08-30T04:43:10.934Z,4.80
2023-08-30T04:48:15.325Z,5.10
2023-08-30T04:53:19.634Z,5.80
2023-08-30T04:58:22.376Z,7.23
2023-08-30T05:03:26.670Z,6.37
2023-08-30T05:08:29.480Z,5.37
2023-08-30T05:13:32.272Z,8.40
2023-08-30T05:18:36.869Z,12.20
2023-08-30T05:23:41.645Z,7.10
2023-08-30T05:28:44.603Z,11.40
2023-08-30T05:33:48.789Z,7.03
2023-08-30T05:39:05.322Z,6.23
2023-08-30T05:44:13.413Z,5.90
2023-08-30T05:49:17.474Z,4.80
2023-08-30T05:54:21.357Z,4.90
2023-08-30T05:59:24.125Z,4.40
2023-08-30T06:04:28.241Z,5.30
2023-08-30T06:09:30.964Z,5.70
2023-08-30T06:14:33.707Z,5.27
2023-08-30T06:19:37.767Z,5.37
2023-08-30T06:24:40.561Z,6.00
2023-08-30T06:29:43.266Z,7.80
2023-08-30T06:34:47.308Z,7.67
2023-08-30T06:39:50.136Z,8.47
2023-08-30T06:44:52.954Z,8.93
2023-08-30T06:49:57.216Z,9.97
2023-08-30T06:55:00.128Z,9.07
2023-08-30T07:00:08.657Z,9.00
2023-08-30T07:05:12.890Z,8.90
2023-08-30T07:10:15.677Z,9.80
2023-08-30T07:15:19.276Z,8.30
2023-08-30T07:20:23.459Z,6.20
2023-08-30T07:25:26.313Z,6.90
2023-08-30T07:30:29.253Z,6.73
2023-08-30T07:35:35.780Z,5.40
2023-08-30T07:40:38.596Z,5.57
2023-08-30T07:45:41.398Z,5.77
2023-08-30T07:50:45.493Z,5.70
2023-08-30T07:55:50.372Z,5.47
2023-08-30T08:00:53.448Z,4.70
2023-08-30T08:05:57.659Z,4.70
2023-08-30T08:11:00.994Z,4.53
2023-08-30T08:16:04.274Z,3.80
2023-08-30T08:21:08.496Z,5.13
2023-08-30T08:26:11.323Z,4.80
2023-08-30T08:31:14.105Z,4.30
2023-08-30T08:36:18.179Z,4.50
2023-08-30T08:41:20.921Z,4.13
2023-08-30T08:46:23.881Z,4.33
2023-08-30T08:51:28.090Z,4.17
2023-08-30T08:56:31.576Z,4.50
2023-08-30T09:01:36.821Z,3.47
2023-08-30T09:06:42.380Z,3.80
2023-08-30T09:11:51.395Z,3.83
2023-08-30T09:16:58.482Z,3.87
2023-08-30T09:22:03.106Z,3.37
2023-08-30T09:27:06.297Z,3.60
2023-08-30T09:32:10.150Z,4.37
2023-08-30T09:37:22.374Z,4.20
2023-08-30T09:42:25.128Z,4.90
2023-08-30T09:47:28.597Z,4.10
2023-08-30T09:52:34.987Z,3.93
2023-08-30T09:57:38.252Z,3.90
2023-08-30T10:02:51.753Z,3.50
2023-08-30T10:08:08.424Z,3.43
2023-08-30T10:13:11.931Z,3.57
2023-08-30T10:18:17.560Z,4.00
2023-08-30T10:23:21.801Z,4.43
2023-08-30T10:28:25.326Z,3.50
2023-08-30T10:33:28.120Z,3.80
2023-08-30T10:38:34.467Z,3.40
2023-08-30T10:43:38.647Z,3.47
2023-08-30T10:48:42.267Z,3.20
2023-08-30T10:53:56.906Z,2.80
2023-08-30T10:58:59.604Z,2.60
2023-08-30T11:04:14.969Z,2.40
2023-08-30T11:09:20.113Z,2.60
2023-08-30T11:14:22.878Z,2.03
2023-08-30T11:19:25.732Z,1.90
2023-08-30T11:24:29.833Z,1.70
2023-08-30T11:29:32.573Z,2.17
2023-08-30T11:34:35.293Z,2.93
2023-08-30T11:39:40.335Z,4.27
2023-08-30T11:44:43.114Z,4.20
2023-08-30T11:49:46.019Z,4.93
2023-08-30T11:54:50.162Z,2.30
2023-08-30T11:59:52.892Z,2.70
2023-08-30T12:04:55.581Z,2.67
2023-08-30T12:10:07.206Z,2.80
2023-08-30T12:15:10.621Z,2.40
2023-08-30T12:20:21.680Z,2.10
2023-08-30T12:25:26.906Z,2.20
2023-08-30T12:30:29.710Z,2.43
2023-08-30T12:35:32.425Z,2.50
2023-08-30T12:40:37.251Z,2.70
2023-08-30T12:45:40.663Z,2.63
2023-08-30T12:50:44.239Z,2.20
2023-08-30T12:55:48.316Z,2.80
2023-08-30T13:00:51.115Z,2.00
2023-08-30T13:05:53.939Z,2.27
2023-08-30T13:10:58.200Z,2.07
2023-08-30T13:16:00.948Z,1.80
2023-08-30T13:21:05.322Z,1.97
2023-08-30T13:26:09.795Z,3.30
2023-08-30T13:31:12.630Z,2.40
2023-08-30T13:36:15.456Z,2.47
2023-08-30T13:41:19.711Z,2.60
2023-08-30T13:46:22.461Z,2.13
2023-08-30T13:51:25.728Z,3.53
2023-08-30T13:56:31.598Z,2.30
2023-08-30T14:01:36.173Z,2.40
2023-08-30T14:06:39.172Z,2.50
2023-08-30T14:11:43.555Z,3.50
2023-08-30T14:16:46.517Z,3.00
2023-08-30T14:21:49.277Z,2.30
2023-08-30T14:26:53.341Z,2.80
2023-08-30T14:31:56.192Z,2.90
2023-08-30T14:36:58.992Z,2.30
2023-08-30T14:42:03.053Z,2.40
2023-08-30T14:47:06.144Z,2.37
2023-08-30T14:52:08.983Z,2.70
2023-08-30T14:57:13.020Z,2.53
2023-08-30T15:02:16.476Z,2.60
2023-08-30T15:07:19.171Z,2.67
2023-08-30T15:12:23.251Z,2.20
2023-08-30T15:17:25.995Z,2.77
2023-08-30T15:22:28.792Z,2.83
2023-08-30T15:27:32.893Z,2.97
2023-08-30T15:32:35.914Z,2.60
2023-08-30T15:37:39.000Z,2.50
2023-08-30T15:42:43.034Z,2.50
2023-08-30T15:47:46.005Z,2.30
2023-08-30T15:52:48.821Z,2.30
2023-08-30T15:57:52.891Z,2.40
2023-08-30T16:02:59.138Z,2.50
2023-08-30T16:08:02.066Z,2.40
2023-08-30T16:13:06.247Z,2.40
2023-08-30T16:18:09.279Z,2.50
2023-08-30T16:23:12.155Z,3.07
2023-08-30T16:28:16.448Z,2.77
2023-08-30T16:33:19.262Z,2.10
2023-08-30T16:38:22.057Z,2.37
2023-08-30T16:43:26.156Z,2.27
2023-08-30T16:48:29.088Z,2.47
2023-08-30T16:53:34.860Z,2.07
2023-08-30T16:58:38.979Z,2.70
2023-08-30T17:03:41.700Z,2.50
2023-08-30T17:08:44.388Z,2.80
2023-08-30T17:13:48.480Z,3.03
2023-08-30T17:18:51.318Z,3.00
2023-08-30T17:23:53.995Z,2.80
2023-08-30T17:28:58.082Z,2.53
2023-08-30T17:34:01.107Z,2.53
2023-08-30T17:39:05.692Z,2.33
2023-08-30T17:44:09.767Z,2.20
2023-08-30T17:49:14.275Z,2.97
2023-08-30T17:54:18.029Z,2.80
2023-08-30T17:59:22.131Z,2.57
2023-08-30T18:04:24.899Z,2.60
2023-08-30T18:09:27.931Z,2.77
2023-08-30T18:14:31.995Z,3.03
2023-08-30T18:19:34.716Z,2.73
2023-08-30T18:24:37.908Z,3.10
2023-08-30T18:29:43.438Z,3.63
2023-08-30T18:34:46.410Z,3.73
2023-08-30T18:39:49.701Z,5.40
2023-08-30T18:44:53.759Z,3.47
2023-08-30T18:49:56.444Z,4.37
2023-08-30T18:54:59.376Z,4.13
2023-08-30T19:00:06.783Z,3.80
2023-08-30T19:05:09.989Z,3.13
2023-08-30T19:10:12.961Z,3.10
2023-08-30T19:15:17.289Z,3.60
2023-08-30T19:20:20.134Z,3.53
2023-08-30T19:25:22.864Z,3.27
2023-08-30T19:30:27.194Z,3.03
2023-08-30T19:35:29.881Z,3.00
2023-08-30T19:40:32.626Z,4.37
2023-08-30T19:45:36.700Z,3.17
2023-08-30T19:50:39.461Z,2.80
2023-08-30T19:55:42.127Z,3.20
2023-08-30T20:00:46.226Z,3.43
2023-08-30T20:05:50.084Z,3.33
2023-08-30T20:10:52.898Z,3.10
2023-08-30T20:16:01.859Z,2.90
2023-08-30T20:21:06.094Z,3.30
2023-08-30T20:26:10.926Z,2.90
2023-08-30T20:31:15.741Z,3.30
2023-08-30T20:36:24.180Z,3.10
2023-08-30T20:41:30.350Z,3.20
2023-08-30T20:46:34.390Z,3.30
2023-08-30T20:51:37.087Z,2.90
2023-08-30T20:56:39.800Z,3.10
2023-08-30T21:01:44.245Z,3.03
2023-08-30T21:06:47.364Z,3.03
2023-08-30T21:11:50.098Z,3.53
2023-08-30T21:16:54.189Z,3.70
2023-08-30T21:21:56.905Z,4.80
2023-08-30T21:26:59.651Z,3.87
2023-08-30T21:32:04.898Z,4.03
2023-08-30T21:37:07.627Z,3.77
2023-08-30T21:42:10.349Z,3.40
2023-08-30T21:47:14.438Z,3.27
2023-08-30T21:52:17.427Z,3.50
2023-08-30T21:57:20.121Z,4.00
2023-08-30T22:02:24.387Z,3.53
2023-08-30T22:07:27.101Z,4.70
2023-08-30T22:12:29.771Z,4.73
2023-08-30T22:17:33.857Z,4.40
2023-08-30T22:22:40.107Z,4.43
2023-08-30T22:27:43.400Z,4.07
2023-08-30T22:32:47.670Z,4.87
2023-08-30T22:37:50.747Z,4.70
2023-08-30T22:42:53.730Z,5.10
2023-08-30T22:47:57.915Z,4.70
2023-08-30T22:53:00.664Z,5.57
2023-08-30T22:58:03.406Z,4.40
2023-08-30T23:03:07.706Z,5.17
2023-08-30T23:08:12.346Z,5.37
2023-08-30T23:13:15.164Z,4.93
2023-08-30T23:18:19.222Z,5.53
2023-08-30T23:23:23.233Z,5.00
2023-08-30T23:28:25.965Z,5.30
2023-08-30T23:33:30.035Z,4.90
2023-08-30T23:38:33.694Z,5.10
2023-08-30T23:43:36.941Z,5.37
2023-08-30T23:48:41.000Z,5.40
2023-08-30T23:53:43.736Z,4.67
2023-08-30T23:58:46.436Z,4.80
